sensor_id;sensor_type;location;lat;lon;timestamp;P1;durP1;ratioP1;P2;durP2;ratioP2
10201;SDS011;5143;42.584;23.164;2022-10-16T00:01:05;54.27;;;20.77;;
10201;SDS011;5143;42.584;23.164;2022-10-16T00:03:33;17.90;;;9.07;;
10201;SDS011;5143;42.584;23.164;2022-10-16T00:06:01;11.10;;;7.80;;
10201;SDS011;5143;42.584;23.164;2022-10-16T00:08:28;15.27;;;8.63;;
10201;SDS011;5143;42.584;23.164;2022-10-16T00:10:58;15.60;;;8.90;;
10201;SDS011;5143;42.584;23.164;2022-10-16T00:13:26;22.23;;;9.97;;
10201;SDS011;5143;42.584;23.164;2022-10-16T00:15:56;19.10;;;9.93;;
10201;SDS011;5143;42.584;23.164;2022-10-16T00:18:23;19.40;;;10.17;;
10201;SDS011;5143;42.584;23.164;2022-10-16T00:20:51;21.00;;;13.27;;
10201;SDS011;5143;42.584;23.164;2022-10-16T00:23:18;24.50;;;13.60;;
10201;SDS011;5143;42.584;23.164;2022-10-16T00:25:45;24.13;;;12.60;;
10201;SDS011;5143;42.584;23.164;2022-10-16T00:28:20;19.43;;;12.07;;
10201;SDS011;5143;42.584;23.164;2022-10-16T00:30:46;15.37;;;9.70;;
10201;SDS011;5143;42.584;23.164;2022-10-16T00:33:14;14.33;;;9.10;;
10201;SDS011;5143;42.584;23.164;2022-10-16T00:35:41;12.83;;;8.13;;
10201;SDS011;5143;42.584;23.164;2022-10-16T00:38:08;14.77;;;8.70;;
10201;SDS011;5143;42.584;23.164;2022-10-16T00:40:35;14.63;;;7.77;;
10201;SDS011;5143;42.584;23.164;2022-10-16T00:43:02;15.20;;;8.13;;
10201;SDS011;5143;42.584;23.164;2022-10-16T00:45:28;13.70;;;7.50;;
10201;SDS011;5143;42.584;23.164;2022-10-16T00:47:55;15.70;;;8.67;;
10201;SDS011;5143;42.584;23.164;2022-10-16T00:50:26;13.90;;;8.10;;
10201;SDS011;5143;42.584;23.164;2022-10-16T00:52:56;12.13;;;6.83;;
10201;SDS011;5143;42.584;23.164;2022-10-16T00:55:24;20.57;;;8.30;;
10201;SDS011;5143;42.584;23.164;2022-10-16T00:57:53;16.53;;;8.70;;
10201;SDS011;5143;42.584;23.164;2022-10-16T01:00:21;23.20;;;11.83;;
10201;SDS011;5143;42.584;23.164;2022-10-16T01:02:53;14.83;;;8.37;;
10201;SDS011;5143;42.584;23.164;2022-10-16T01:05:21;17.10;;;9.97;;
10201;SDS011;5143;42.584;23.164;2022-10-16T01:07:53;18.63;;;9.30;;
10201;SDS011;5143;42.584;23.164;2022-10-16T01:10:27;15.20;;;9.47;;
10201;SDS011;5143;42.584;23.164;2022-10-16T01:12:59;12.00;;;7.23;;
10201;SDS011;5143;42.584;23.164;2022-10-16T01:15:30;13.87;;;8.20;;
10201;SDS011;5143;42.584;23.164;2022-10-16T01:18:00;12.10;;;7.23;;
10201;SDS011;5143;42.584;23.164;2022-10-16T01:20:33;15.00;;;8.87;;
10201;SDS011;5143;42.584;23.164;2022-10-16T01:23:07;14.33;;;8.10;;
10201;SDS011;5143;42.584;23.164;2022-10-16T01:28:49;14.07;;;8.43;;
10201;SDS011;5143;42.584;23.164;2022-10-16T01:31:22;14.33;;;8.57;;
10201;SDS011;5143;42.584;23.164;2022-10-16T01:33:53;28.17;;;11.87;;
10201;SDS011;5143;42.584;23.164;2022-10-16T01:36:27;55.60;;;19.83;;
10201;SDS011;5143;42.584;23.164;2022-10-16T01:38:59;38.13;;;16.47;;
10201;SDS011;5143;42.584;23.164;2022-10-16T01:41:30;20.80;;;7.77;;
10201;SDS011;5143;42.584;23.164;2022-10-16T01:44:01;16.10;;;8.47;;
10201;SDS011;5143;42.584;23.164;2022-10-16T01:46:31;9.53;;;6.57;;
10201;SDS011;5143;42.584;23.164;2022-10-16T01:48:59;11.67;;;7.47;;
10201;SDS011;5143;42.584;23.164;2022-10-16T01:51:28;16.47;;;7.87;;
10201;SDS011;5143;42.584;23.164;2022-10-16T01:53:57;14.57;;;8.67;;
10201;SDS011;5143;42.584;23.164;2022-10-16T01:56:27;16.70;;;8.27;;
10201;SDS011;5143;42.584;23.164;2022-10-16T01:58:57;20.40;;;8.57;;
10201;SDS011;5143;42.584;23.164;2022-10-16T02:01:28;17.10;;;8.00;;
10201;SDS011;5143;42.584;23.164;2022-10-16T02:04:00;18.23;;;10.33;;
10201;SDS011;5143;42.584;23.164;2022-10-16T02:06:31;16.43;;;8.47;;
10201;SDS011;5143;42.584;23.164;2022-10-16T02:08:58;13.23;;;7.93;;
10201;SDS011;5143;42.584;23.164;2022-10-16T02:11:25;16.97;;;8.37;;
10201;SDS011;5143;42.584;23.164;2022-10-16T02:13:53;12.20;;;7.67;;
10201;SDS011;5143;42.584;23.164;2022-10-16T02:16:31;13.63;;;8.53;;
10201;SDS011;5143;42.584;23.164;2022-10-16T02:18:59;10.97;;;6.50;;
10201;SDS011;5143;42.584;23.164;2022-10-16T02:21:28;14.57;;;6.97;;
10201;SDS011;5143;42.584;23.164;2022-10-16T02:24:02;12.00;;;6.80;;
10201;SDS011;5143;42.584;23.164;2022-10-16T02:26:36;21.93;;;10.87;;
10201;SDS011;5143;42.584;23.164;2022-10-16T02:29:10;21.63;;;10.60;;
10201;SDS011;5143;42.584;23.164;2022-10-16T02:31:43;13.33;;;7.13;;
10201;SDS011;5143;42.584;23.164;2022-10-16T02:34:16;14.20;;;7.07;;
10201;SDS011;5143;42.584;23.164;2022-10-16T02:36:45;13.97;;;7.10;;
10201;SDS011;5143;42.584;23.164;2022-10-16T02:39:14;10.20;;;6.63;;
10201;SDS011;5143;42.584;23.164;2022-10-16T02:41:42;14.80;;;6.63;;
10201;SDS011;5143;42.584;23.164;2022-10-16T02:44:09;10.20;;;6.47;;
10201;SDS011;5143;42.584;23.164;2022-10-16T02:46:36;9.87;;;6.23;;
10201;SDS011;5143;42.584;23.164;2022-10-16T02:49:04;10.60;;;6.27;;
10201;SDS011;5143;42.584;23.164;2022-10-16T02:51:31;9.30;;;6.17;;
10201;SDS011;5143;42.584;23.164;2022-10-16T02:53:57;9.17;;;5.93;;
10201;SDS011;5143;42.584;23.164;2022-10-16T02:56:24;10.33;;;5.87;;
10201;SDS011;5143;42.584;23.164;2022-10-16T02:58:51;9.00;;;5.80;;
10201;SDS011;5143;42.584;23.164;2022-10-16T03:01:18;11.40;;;5.97;;
10201;SDS011;5143;42.584;23.164;2022-10-16T03:03:44;7.53;;;5.63;;
10201;SDS011;5143;42.584;23.164;2022-10-16T03:06:13;10.13;;;5.70;;
10201;SDS011;5143;42.584;23.164;2022-10-16T03:08:39;8.17;;;5.77;;
10201;SDS011;5143;42.584;23.164;2022-10-16T03:11:06;10.37;;;6.17;;
10201;SDS011;5143;42.584;23.164;2022-10-16T03:13:33;14.40;;;6.50;;
10201;SDS011;5143;42.584;23.164;2022-10-16T03:16:00;7.90;;;5.60;;
10201;SDS011;5143;42.584;23.164;2022-10-16T03:18:27;11.07;;;6.10;;
10201;SDS011;5143;42.584;23.164;2022-10-16T03:20:54;13.73;;;6.67;;
10201;SDS011;5143;42.584;23.164;2022-10-16T03:23:22;16.50;;;5.60;;
10201;SDS011;5143;42.584;23.164;2022-10-16T03:25:49;18.60;;;5.73;;
10201;SDS011;5143;42.584;23.164;2022-10-16T03:28:16;8.87;;;5.33;;
10201;SDS011;5143;42.584;23.164;2022-10-16T03:30:42;8.63;;;5.53;;
10201;SDS011;5143;42.584;23.164;2022-10-16T03:33:10;7.70;;;6.00;;
10201;SDS011;5143;42.584;23.164;2022-10-16T03:35:36;7.57;;;5.77;;
10201;SDS011;5143;42.584;23.164;2022-10-16T03:38:03;10.87;;;5.57;;
10201;SDS011;5143;42.584;23.164;2022-10-16T03:40:31;10.40;;;5.53;;
10201;SDS011;5143;42.584;23.164;2022-10-16T03:42:58;9.07;;;6.13;;
10201;SDS011;5143;42.584;23.164;2022-10-16T03:45:25;10.47;;;5.70;;
10201;SDS011;5143;42.584;23.164;2022-10-16T03:47:52;13.17;;;7.57;;
10201;SDS011;5143;42.584;23.164;2022-10-16T03:50:19;11.27;;;6.30;;
10201;SDS011;5143;42.584;23.164;2022-10-16T03:52:46;13.57;;;5.80;;
10201;SDS011;5143;42.584;23.164;2022-10-16T03:55:13;10.90;;;6.37;;
10201;SDS011;5143;42.584;23.164;2022-10-16T03:57:41;8.40;;;5.50;;
10201;SDS011;5143;42.584;23.164;2022-10-16T04:00:08;10.67;;;6.17;;
10201;SDS011;5143;42.584;23.164;2022-10-16T04:02:36;10.27;;;5.97;;
10201;SDS011;5143;42.584;23.164;2022-10-16T04:05:03;11.13;;;5.70;;
10201;SDS011;5143;42.584;23.164;2022-10-16T04:07:30;16.40;;;5.77;;
10201;SDS011;5143;42.584;23.164;2022-10-16T04:09:57;11.33;;;5.77;;
10201;SDS011;5143;42.584;23.164;2022-10-16T04:12:24;19.40;;;6.40;;
10201;SDS011;5143;42.584;23.164;2022-10-16T04:14:52;10.57;;;5.90;;
10201;SDS011;5143;42.584;23.164;2022-10-16T04:17:19;11.17;;;6.13;;
10201;SDS011;5143;42.584;23.164;2022-10-16T04:19:46;12.30;;;6.40;;
10201;SDS011;5143;42.584;23.164;2022-10-16T04:22:12;13.77;;;5.97;;
10201;SDS011;5143;42.584;23.164;2022-10-16T04:24:39;16.90;;;6.10;;
10201;SDS011;5143;42.584;23.164;2022-10-16T04:27:06;10.27;;;6.83;;
10201;SDS011;5143;42.584;23.164;2022-10-16T04:29:33;15.27;;;8.80;;
10201;SDS011;5143;42.584;23.164;2022-10-16T04:32:01;9.47;;;6.70;;
10201;SDS011;5143;42.584;23.164;2022-10-16T04:34:28;15.77;;;5.83;;
10201;SDS011;5143;42.584;23.164;2022-10-16T04:36:55;9.40;;;6.17;;
10201;SDS011;5143;42.584;23.164;2022-10-16T04:39:21;10.70;;;6.30;;
10201;SDS011;5143;42.584;23.164;2022-10-16T04:41:48;12.70;;;6.97;;
10201;SDS011;5143;42.584;23.164;2022-10-16T04:44:15;15.40;;;7.20;;
10201;SDS011;5143;42.584;23.164;2022-10-16T04:46:42;9.03;;;6.20;;
10201;SDS011;5143;42.584;23.164;2022-10-16T04:49:10;9.13;;;6.47;;
10201;SDS011;5143;42.584;23.164;2022-10-16T04:51:37;9.97;;;6.23;;
10201;SDS011;5143;42.584;23.164;2022-10-16T04:54:04;13.37;;;6.43;;
10201;SDS011;5143;42.584;23.164;2022-10-16T04:56:31;15.03;;;7.33;;
10201;SDS011;5143;42.584;23.164;2022-10-16T04:58:57;15.33;;;7.23;;
10201;SDS011;5143;42.584;23.164;2022-10-16T05:01:24;12.93;;;7.17;;
10201;SDS011;5143;42.584;23.164;2022-10-16T05:03:51;10.17;;;6.00;;
10201;SDS011;5143;42.584;23.164;2022-10-16T05:06:19;23.20;;;9.90;;
10201;SDS011;5143;42.584;23.164;2022-10-16T05:08:45;23.17;;;12.37;;
10201;SDS011;5143;42.584;23.164;2022-10-16T05:11:12;27.80;;;11.20;;
10201;SDS011;5143;42.584;23.164;2022-10-16T05:13:39;18.33;;;8.67;;
10201;SDS011;5143;42.584;23.164;2022-10-16T05:16:06;13.77;;;7.67;;
10201;SDS011;5143;42.584;23.164;2022-10-16T05:18:32;34.00;;;14.70;;
10201;SDS011;5143;42.584;23.164;2022-10-16T05:20:59;27.43;;;12.87;;
10201;SDS011;5143;42.584;23.164;2022-10-16T05:23:28;22.37;;;9.10;;
10201;SDS011;5143;42.584;23.164;2022-10-16T05:25:55;14.80;;;8.93;;
10201;SDS011;5143;42.584;23.164;2022-10-16T05:28:23;36.57;;;12.43;;
10201;SDS011;5143;42.584;23.164;2022-10-16T05:30:50;87.87;;;26.13;;
10201;SDS011;5143;42.584;23.164;2022-10-16T05:33:19;48.33;;;16.27;;
10201;SDS011;5143;42.584;23.164;2022-10-16T05:35:46;137.17;;;36.57;;
10201;SDS011;5143;42.584;23.164;2022-10-16T05:38:12;48.77;;;17.90;;
10201;SDS011;5143;42.584;23.164;2022-10-16T05:40:41;94.50;;;31.33;;
10201;SDS011;5143;42.584;23.164;2022-10-16T05:43:08;46.50;;;16.73;;
10201;SDS011;5143;42.584;23.164;2022-10-16T05:45:35;36.70;;;15.43;;
10201;SDS011;5143;42.584;23.164;2022-10-16T05:48:02;29.97;;;12.30;;
10201;SDS011;5143;42.584;23.164;2022-10-16T05:50:29;27.80;;;11.73;;
10201;SDS011;5143;42.584;23.164;2022-10-16T05:52:56;31.83;;;13.23;;
10201;SDS011;5143;42.584;23.164;2022-10-16T05:55:23;28.50;;;12.87;;
10201;SDS011;5143;42.584;23.164;2022-10-16T05:57:53;37.77;;;17.10;;
10201;SDS011;5143;42.584;23.164;2022-10-16T06:00:20;23.03;;;12.40;;
10201;SDS011;5143;42.584;23.164;2022-10-16T06:02:47;17.80;;;10.07;;
10201;SDS011;5143;42.584;23.164;2022-10-16T06:05:14;56.37;;;25.00;;
10201;SDS011;5143;42.584;23.164;2022-10-16T06:07:40;35.13;;;16.80;;
10201;SDS011;5143;42.584;23.164;2022-10-16T06:10:08;29.13;;;16.10;;
10201;SDS011;5143;42.584;23.164;2022-10-16T06:12:35;26.40;;;15.50;;
10201;SDS011;5143;42.584;23.164;2022-10-16T06:15:03;20.37;;;10.30;;
10201;SDS011;5143;42.584;23.164;2022-10-16T06:17:30;17.37;;;10.90;;
10201;SDS011;5143;42.584;23.164;2022-10-16T06:19:57;22.73;;;11.03;;
10201;SDS011;5143;42.584;23.164;2022-10-16T06:22:24;19.07;;;10.57;;
10201;SDS011;5143;42.584;23.164;2022-10-16T06:24:50;15.70;;;9.80;;
10201;SDS011;5143;42.584;23.164;2022-10-16T06:27:17;22.20;;;9.83;;
10201;SDS011;5143;42.584;23.164;2022-10-16T06:29:44;13.57;;;8.33;;
10201;SDS011;5143;42.584;23.164;2022-10-16T06:32:13;14.93;;;8.33;;
10201;SDS011;5143;42.584;23.164;2022-10-16T06:34:39;15.50;;;7.43;;
10201;SDS011;5143;42.584;23.164;2022-10-16T06:37:06;10.07;;;6.90;;
10201;SDS011;5143;42.584;23.164;2022-10-16T06:39:33;13.20;;;6.63;;
10201;SDS011;5143;42.584;23.164;2022-10-16T06:42:00;13.27;;;5.83;;
10201;SDS011;5143;42.584;23.164;2022-10-16T06:44:26;11.13;;;5.60;;
10201;SDS011;5143;42.584;23.164;2022-10-16T06:46:53;9.87;;;6.10;;
10201;SDS011;5143;42.584;23.164;2022-10-16T06:49:21;10.77;;;5.90;;
10201;SDS011;5143;42.584;23.164;2022-10-16T06:51:48;8.20;;;5.43;;
10201;SDS011;5143;42.584;23.164;2022-10-16T06:54:15;7.47;;;4.37;;
10201;SDS011;5143;42.584;23.164;2022-10-16T06:56:43;6.83;;;4.87;;
10201;SDS011;5143;42.584;23.164;2022-10-16T06:59:09;9.20;;;5.70;;
10201;SDS011;5143;42.584;23.164;2022-10-16T07:01:36;12.00;;;5.80;;
10201;SDS011;5143;42.584;23.164;2022-10-16T07:04:03;11.27;;;6.93;;
10201;SDS011;5143;42.584;23.164;2022-10-16T07:06:32;9.23;;;6.80;;
10201;SDS011;5143;42.584;23.164;2022-10-16T07:09:01;8.97;;;6.47;;
10201;SDS011;5143;42.584;23.164;2022-10-16T07:11:30;9.20;;;6.80;;
10201;SDS011;5143;42.584;23.164;2022-10-16T07:13:56;9.57;;;5.83;;
10201;SDS011;5143;42.584;23.164;2022-10-16T07:16:24;8.20;;;5.63;;
10201;SDS011;5143;42.584;23.164;2022-10-16T07:18:53;21.33;;;6.07;;
10201;SDS011;5143;42.584;23.164;2022-10-16T07:21:23;11.80;;;5.23;;
10201;SDS011;5143;42.584;23.164;2022-10-16T07:23:53;11.47;;;5.27;;
10201;SDS011;5143;42.584;23.164;2022-10-16T07:26:20;11.23;;;4.97;;
10201;SDS011;5143;42.584;23.164;2022-10-16T07:28:47;6.13;;;4.80;;
10201;SDS011;5143;42.584;23.164;2022-10-16T07:31:14;7.20;;;5.10;;
10201;SDS011;5143;42.584;23.164;2022-10-16T07:33:42;8.10;;;4.97;;
10201;SDS011;5143;42.584;23.164;2022-10-16T07:36:10;10.03;;;5.27;;
10201;SDS011;5143;42.584;23.164;2022-10-16T07:38:37;9.87;;;4.57;;
10201;SDS011;5143;42.584;23.164;2022-10-16T07:41:06;5.97;;;4.40;;
10201;SDS011;5143;42.584;23.164;2022-10-16T07:43:35;9.30;;;4.20;;
10201;SDS011;5143;42.584;23.164;2022-10-16T07:46:02;7.43;;;4.23;;
10201;SDS011;5143;42.584;23.164;2022-10-16T07:48:30;7.97;;;4.60;;
10201;SDS011;5143;42.584;23.164;2022-10-16T07:50:59;6.83;;;4.70;;
10201;SDS011;5143;42.584;23.164;2022-10-16T07:53:27;6.40;;;4.90;;
10201;SDS011;5143;42.584;23.164;2022-10-16T07:55:56;10.33;;;6.10;;
10201;SDS011;5143;42.584;23.164;2022-10-16T07:58:25;7.13;;;4.57;;
10201;SDS011;5143;42.584;23.164;2022-10-16T08:00:52;7.87;;;4.50;;
10201;SDS011;5143;42.584;23.164;2022-10-16T08:03:19;5.57;;;4.30;;
10201;SDS011;5143;42.584;23.164;2022-10-16T08:05:46;10.83;;;4.90;;
10201;SDS011;5143;42.584;23.164;2022-10-16T08:08:13;7.13;;;4.57;;
10201;SDS011;5143;42.584;23.164;2022-10-16T08:10:41;17.47;;;5.47;;
10201;SDS011;5143;42.584;23.164;2022-10-16T08:13:08;8.07;;;4.97;;
10201;SDS011;5143;42.584;23.164;2022-10-16T08:15:36;16.63;;;4.67;;
10201;SDS011;5143;42.584;23.164;2022-10-16T08:18:03;10.77;;;5.07;;
10201;SDS011;5143;42.584;23.164;2022-10-16T08:20:31;9.23;;;4.73;;
10201;SDS011;5143;42.584;23.164;2022-10-16T08:22:59;9.37;;;4.37;;
10201;SDS011;5143;42.584;23.164;2022-10-16T08:25:26;8.60;;;5.23;;
10201;SDS011;5143;42.584;23.164;2022-10-16T08:27:53;9.23;;;4.70;;
10201;SDS011;5143;42.584;23.164;2022-10-16T08:30:21;8.87;;;4.47;;
10201;SDS011;5143;42.584;23.164;2022-10-16T08:32:51;8.87;;;4.73;;
10201;SDS011;5143;42.584;23.164;2022-10-16T08:35:18;6.10;;;4.60;;
10201;SDS011;5143;42.584;23.164;2022-10-16T08:37:44;6.13;;;4.20;;
10201;SDS011;5143;42.584;23.164;2022-10-16T08:40:15;8.30;;;4.47;;
10201;SDS011;5143;42.584;23.164;2022-10-16T08:42:53;9.40;;;4.23;;
10201;SDS011;5143;42.584;23.164;2022-10-16T08:45:34;12.10;;;5.13;;
10201;SDS011;5143;42.584;23.164;2022-10-16T08:48:14;15.07;;;5.83;;
10201;SDS011;5143;42.584;23.164;2022-10-16T08:50:46;19.43;;;5.00;;
10201;SDS011;5143;42.584;23.164;2022-10-16T08:53:17;7.37;;;4.60;;
10201;SDS011;5143;42.584;23.164;2022-10-16T08:55:49;7.37;;;5.23;;
10201;SDS011;5143;42.584;23.164;2022-10-16T08:58:18;11.27;;;4.87;;
10201;SDS011;5143;42.584;23.164;2022-10-16T09:00:47;7.20;;;4.50;;
10201;SDS011;5143;42.584;23.164;2022-10-16T09:03:21;6.30;;;4.80;;
10201;SDS011;5143;42.584;23.164;2022-10-16T09:06:07;7.13;;;4.60;;
10201;SDS011;5143;42.584;23.164;2022-10-16T09:08:46;13.53;;;4.63;;
10201;SDS011;5143;42.584;23.164;2022-10-16T09:11:26;11.13;;;4.80;;
10201;SDS011;5143;42.584;23.164;2022-10-16T09:14:03;7.27;;;4.43;;
10201;SDS011;5143;42.584;23.164;2022-10-16T09:16:41;7.67;;;4.33;;
10201;SDS011;5143;42.584;23.164;2022-10-16T09:19:15;6.20;;;4.17;;
10201;SDS011;5143;42.584;23.164;2022-10-16T09:21:47;8.87;;;4.40;;
10201;SDS011;5143;42.584;23.164;2022-10-16T09:24:16;5.47;;;4.17;;
10201;SDS011;5143;42.584;23.164;2022-10-16T09:26:45;6.33;;;4.00;;
10201;SDS011;5143;42.584;23.164;2022-10-16T09:29:13;9.40;;;4.10;;
10201;SDS011;5143;42.584;23.164;2022-10-16T09:31:41;7.83;;;4.93;;
10201;SDS011;5143;42.584;23.164;2022-10-16T09:34:10;6.63;;;4.10;;
10201;SDS011;5143;42.584;23.164;2022-10-16T09:36:47;9.67;;;4.47;;
10201;SDS011;5143;42.584;23.164;2022-10-16T09:39:14;10.63;;;4.03;;
10201;SDS011;5143;42.584;23.164;2022-10-16T09:41:41;5.93;;;4.27;;
10201;SDS011;5143;42.584;23.164;2022-10-16T09:44:18;6.03;;;3.90;;
10201;SDS011;5143;42.584;23.164;2022-10-16T09:46:47;7.57;;;4.60;;
10201;SDS011;5143;42.584;23.164;2022-10-16T09:49:20;5.73;;;3.77;;
10201;SDS011;5143;42.584;23.164;2022-10-16T09:51:49;8.50;;;4.10;;
10201;SDS011;5143;42.584;23.164;2022-10-16T09:54:17;7.40;;;4.30;;
10201;SDS011;5143;42.584;23.164;2022-10-16T09:56:45;6.27;;;3.80;;
10201;SDS011;5143;42.584;23.164;2022-10-16T09:59:17;4.70;;;3.77;;
10201;SDS011;5143;42.584;23.164;2022-10-16T10:01:46;4.07;;;3.40;;
10201;SDS011;5143;42.584;23.164;2022-10-16T10:04:15;8.47;;;4.07;;
10201;SDS011;5143;42.584;23.164;2022-10-16T10:06:45;8.23;;;3.70;;
10201;SDS011;5143;42.584;23.164;2022-10-16T10:09:17;5.47;;;3.33;;
10201;SDS011;5143;42.584;23.164;2022-10-16T10:11:47;9.30;;;3.43;;
10201;SDS011;5143;42.584;23.164;2022-10-16T10:14:26;4.93;;;3.20;;
10201;SDS011;5143;42.584;23.164;2022-10-16T10:17:06;6.57;;;3.37;;
10201;SDS011;5143;42.584;23.164;2022-10-16T10:19:37;5.23;;;3.73;;
10201;SDS011;5143;42.584;23.164;2022-10-16T10:22:15;3.43;;;2.77;;
10201;SDS011;5143;42.584;23.164;2022-10-16T10:24:44;3.43;;;2.53;;
10201;SDS011;5143;42.584;23.164;2022-10-16T10:27:12;3.83;;;2.80;;
10201;SDS011;5143;42.584;23.164;2022-10-16T10:29:45;8.37;;;3.10;;
10201;SDS011;5143;42.584;23.164;2022-10-16T10:32:22;8.03;;;3.27;;
10201;SDS011;5143;42.584;23.164;2022-10-16T10:35:04;6.50;;;2.97;;
10201;SDS011;5143;42.584;23.164;2022-10-16T10:37:45;5.17;;;3.20;;
10201;SDS011;5143;42.584;23.164;2022-10-16T10:40:23;3.03;;;2.70;;
10201;SDS011;5143;42.584;23.164;2022-10-16T10:42:59;7.00;;;3.10;;
10201;SDS011;5143;42.584;23.164;2022-10-16T10:45:37;8.33;;;3.90;;
10201;SDS011;5143;42.584;23.164;2022-10-16T10:51:13;5.00;;;2.97;;
10201;SDS011;5143;42.584;23.164;2022-10-16T10:53:47;4.37;;;3.27;;
10201;SDS011;5143;42.584;23.164;2022-10-16T10:56:25;5.90;;;2.97;;
10201;SDS011;5143;42.584;23.164;2022-10-16T11:02:04;6.13;;;3.77;;
10201;SDS011;5143;42.584;23.164;2022-10-16T11:07:47;7.60;;;2.87;;
10201;SDS011;5143;42.584;23.164;2022-10-16T11:10:20;7.33;;;2.87;;
10201;SDS011;5143;42.584;23.164;2022-10-16T11:12:50;5.30;;;3.27;;
10201;SDS011;5143;42.584;23.164;2022-10-16T11:15:22;3.87;;;2.70;;
10201;SDS011;5143;42.584;23.164;2022-10-16T11:17:53;4.33;;;2.60;;
10201;SDS011;5143;42.584;23.164;2022-10-16T11:20:27;5.07;;;2.70;;
10201;SDS011;5143;42.584;23.164;2022-10-16T11:22:58;4.07;;;2.57;;
10201;SDS011;5143;42.584;23.164;2022-10-16T11:25:33;5.63;;;2.60;;
10201;SDS011;5143;42.584;23.164;2022-10-16T11:28:01;8.10;;;3.00;;
10201;SDS011;5143;42.584;23.164;2022-10-16T11:30:33;4.67;;;2.50;;
10201;SDS011;5143;42.584;23.164;2022-10-16T11:33:11;3.40;;;2.70;;
10201;SDS011;5143;42.584;23.164;2022-10-16T11:35:52;4.63;;;2.90;;
10201;SDS011;5143;42.584;23.164;2022-10-16T11:38:23;3.37;;;2.70;;
10201;SDS011;5143;42.584;23.164;2022-10-16T11:40:58;2.57;;;2.10;;
10201;SDS011;5143;42.584;23.164;2022-10-16T11:43:28;7.03;;;2.50;;
10201;SDS011;5143;42.584;23.164;2022-10-16T11:46:04;2.63;;;2.33;;
10201;SDS011;5143;42.584;23.164;2022-10-16T11:48:38;5.03;;;2.33;;
10201;SDS011;5143;42.584;23.164;2022-10-16T11:51:14;3.40;;;2.47;;
10201;SDS011;5143;42.584;23.164;2022-10-16T11:53:46;4.57;;;2.20;;
10201;SDS011;5143;42.584;23.164;2022-10-16T11:56:21;2.83;;;2.43;;
10201;SDS011;5143;42.584;23.164;2022-10-16T11:58:51;6.03;;;2.53;;
10201;SDS011;5143;42.584;23.164;2022-10-16T12:01:26;2.50;;;2.20;;
10201;SDS011;5143;42.584;23.164;2022-10-16T12:06:47;7.47;;;2.50;;
10201;SDS011;5143;42.584;23.164;2022-10-16T12:09:20;3.20;;;2.80;;
10201;SDS011;5143;42.584;23.164;2022-10-16T12:11:52;2.83;;;2.00;;
10201;SDS011;5143;42.584;23.164;2022-10-16T12:14:38;7.60;;;2.10;;
10201;SDS011;5143;42.584;23.164;2022-10-16T12:20:00;3.43;;;2.10;;
10201;SDS011;5143;42.584;23.164;2022-10-16T12:22:47;4.33;;;2.13;;
10201;SDS011;5143;42.584;23.164;2022-10-16T12:25:20;5.93;;;2.40;;
10201;SDS011;5143;42.584;23.164;2022-10-16T12:27:55;3.97;;;2.40;;
10201;SDS011;5143;42.584;23.164;2022-10-16T12:30:23;3.27;;;2.20;;
10201;SDS011;5143;42.584;23.164;2022-10-16T12:32:52;6.03;;;1.80;;
10201;SDS011;5143;42.584;23.164;2022-10-16T12:35:21;4.50;;;2.43;;
10201;SDS011;5143;42.584;23.164;2022-10-16T12:37:50;5.27;;;2.10;;
10201;SDS011;5143;42.584;23.164;2022-10-16T12:40:23;3.27;;;2.20;;
10201;SDS011;5143;42.584;23.164;2022-10-16T12:42:56;3.77;;;2.07;;
10201;SDS011;5143;42.584;23.164;2022-10-16T12:45:24;3.43;;;2.10;;
10201;SDS011;5143;42.584;23.164;2022-10-16T12:47:56;5.73;;;1.70;;
10201;SDS011;5143;42.584;23.164;2022-10-16T12:50:25;2.67;;;2.23;;
10201;SDS011;5143;42.584;23.164;2022-10-16T12:52:55;7.17;;;2.37;;
10201;SDS011;5143;42.584;23.164;2022-10-16T12:55:23;5.67;;;2.30;;
10201;SDS011;5143;42.584;23.164;2022-10-16T13:00:56;2.90;;;1.70;;
10201;SDS011;5143;42.584;23.164;2022-10-16T13:03:34;6.00;;;1.93;;
10201;SDS011;5143;42.584;23.164;2022-10-16T13:06:26;2.73;;;1.80;;
10201;SDS011;5143;42.584;23.164;2022-10-16T13:09:07;5.00;;;2.00;;
10201;SDS011;5143;42.584;23.164;2022-10-16T13:11:52;2.50;;;1.80;;
10201;SDS011;5143;42.584;23.164;2022-10-16T13:17:30;6.83;;;2.00;;
10201;SDS011;5143;42.584;23.164;2022-10-16T13:20:10;3.43;;;1.93;;
10201;SDS011;5143;42.584;23.164;2022-10-16T13:22:45;1.77;;;1.60;;
10201;SDS011;5143;42.584;23.164;2022-10-16T13:25:23;4.10;;;1.60;;
10201;SDS011;5143;42.584;23.164;2022-10-16T13:27:59;2.17;;;1.63;;
10201;SDS011;5143;42.584;23.164;2022-10-16T13:30:28;4.10;;;2.47;;
10201;SDS011;5143;42.584;23.164;2022-10-16T13:33:00;3.27;;;2.13;;
10201;SDS011;5143;42.584;23.164;2022-10-16T13:35:29;3.63;;;1.80;;
10201;SDS011;5143;42.584;23.164;2022-10-16T13:40:48;3.93;;;1.60;;
10201;SDS011;5143;42.584;23.164;2022-10-16T13:43:20;2.43;;;1.93;;
10201;SDS011;5143;42.584;23.164;2022-10-16T13:45:53;2.17;;;1.60;;
10201;SDS011;5143;42.584;23.164;2022-10-16T13:48:22;3.30;;;1.80;;
10201;SDS011;5143;42.584;23.164;2022-10-16T13:50:58;5.93;;;1.90;;
10201;SDS011;5143;42.584;23.164;2022-10-16T13:53:32;1.97;;;1.57;;
10201;SDS011;5143;42.584;23.164;2022-10-16T13:56:02;4.53;;;2.10;;
10201;SDS011;5143;42.584;23.164;2022-10-16T13:58:30;2.57;;;1.80;;
10201;SDS011;5143;42.584;23.164;2022-10-16T14:00:57;3.80;;;2.00;;
10201;SDS011;5143;42.584;23.164;2022-10-16T14:03:28;2.67;;;1.80;;
10201;SDS011;5143;42.584;23.164;2022-10-16T14:05:57;4.90;;;2.00;;
10201;SDS011;5143;42.584;23.164;2022-10-16T14:08:27;4.97;;;2.30;;
10201;SDS011;5143;42.584;23.164;2022-10-16T14:10:55;4.90;;;1.77;;
10201;SDS011;5143;42.584;23.164;2022-10-16T14:13:27;2.53;;;2.00;;
10201;SDS011;5143;42.584;23.164;2022-10-16T14:15:58;2.63;;;1.80;;
10201;SDS011;5143;42.584;23.164;2022-10-16T14:18:30;5.03;;;2.17;;
10201;SDS011;5143;42.584;23.164;2022-10-16T14:21:02;6.43;;;2.00;;
10201;SDS011;5143;42.584;23.164;2022-10-16T14:23:31;2.93;;;2.00;;
10201;SDS011;5143;42.584;23.164;2022-10-16T14:26:11;6.80;;;2.33;;
10201;SDS011;5143;42.584;23.164;2022-10-16T14:28:40;9.03;;;2.50;;
10201;SDS011;5143;42.584;23.164;2022-10-16T14:33:53;2.90;;;2.20;;
10201;SDS011;5143;42.584;23.164;2022-10-16T14:36:20;2.40;;;1.90;;
10201;SDS011;5143;42.584;23.164;2022-10-16T14:38:48;3.10;;;1.90;;
10201;SDS011;5143;42.584;23.164;2022-10-16T14:41:21;3.33;;;2.20;;
10201;SDS011;5143;42.584;23.164;2022-10-16T14:43:50;3.33;;;2.70;;
10201;SDS011;5143;42.584;23.164;2022-10-16T14:46:20;2.10;;;1.60;;
10201;SDS011;5143;42.584;23.164;2022-10-16T14:48:51;6.03;;;2.13;;
10201;SDS011;5143;42.584;23.164;2022-10-16T14:51:25;4.47;;;2.03;;
10201;SDS011;5143;42.584;23.164;2022-10-16T14:53:52;4.03;;;1.70;;
10201;SDS011;5143;42.584;23.164;2022-10-16T14:56:20;3.67;;;1.90;;
10201;SDS011;5143;42.584;23.164;2022-10-16T14:58:49;4.13;;;2.40;;
10201;SDS011;5143;42.584;23.164;2022-10-16T15:01:17;4.43;;;2.40;;
10201;SDS011;5143;42.584;23.164;2022-10-16T15:03:44;4.03;;;2.10;;
10201;SDS011;5143;42.584;23.164;2022-10-16T15:06:12;3.03;;;1.90;;
10201;SDS011;5143;42.584;23.164;2022-10-16T15:08:41;4.80;;;2.23;;
10201;SDS011;5143;42.584;23.164;2022-10-16T15:11:08;10.43;;;2.07;;
10201;SDS011;5143;42.584;23.164;2022-10-16T15:13:38;3.90;;;1.87;;
10201;SDS011;5143;42.584;23.164;2022-10-16T15:16:07;10.60;;;2.70;;
10201;SDS011;5143;42.584;23.164;2022-10-16T15:18:36;13.30;;;2.67;;
10201;SDS011;5143;42.584;23.164;2022-10-16T15:21:03;10.20;;;2.40;;
10201;SDS011;5143;42.584;23.164;2022-10-16T15:23:32;3.27;;;1.87;;
10201;SDS011;5143;42.584;23.164;2022-10-16T15:25:58;4.73;;;2.10;;